createdAt,value
2018-03-28T00:01:32.071Z,31.10
2018-03-28T00:04:00.304Z,32.80
2018-03-28T00:06:28.555Z,31.80
2018-03-28T00:08:56.039Z,29.33
2018-03-28T00:11:24.269Z,31.03
2018-03-28T00:13:51.773Z,29.17
2018-03-28T00:16:20.030Z,30.37
2018-03-28T00:18:48.264Z,31.60
2018-03-28T00:21:15.761Z,28.80
2018-03-28T00:23:43.225Z,30.73
2018-03-28T00:26:10.710Z,31.13
2018-03-28T00:28:38.189Z,30.50
2018-03-28T00:31:05.681Z,29.80
2018-03-28T00:33:33.306Z,30.83
2018-03-28T00:36:00.774Z,29.33
2018-03-28T00:38:28.258Z,31.73
2018-03-28T00:40:55.837Z,30.70
2018-03-28T00:43:23.317Z,29.90
2018-03-28T00:45:50.822Z,30.13
2018-03-28T00:48:18.306Z,29.93
2018-03-28T00:50:45.820Z,30.90
2018-03-28T00:53:13.289Z,31.03
2018-03-28T00:55:40.768Z,28.47
2018-03-28T00:58:08.238Z,29.67
2018-03-28T01:00:35.718Z,30.37
2018-03-28T01:03:03.945Z,27.63
2018-03-28T01:05:31.605Z,27.80
2018-03-28T01:07:59.094Z,27.57
2018-03-28T01:10:26.552Z,27.13
2018-03-28T01:12:54.031Z,26.50
2018-03-28T01:15:22.266Z,26.50
2018-03-28T01:17:49.772Z,24.83
2018-03-28T01:20:18.000Z,27.17
2018-03-28T01:22:45.466Z,25.00
2018-03-28T01:25:12.946Z,25.97
2018-03-28T01:27:41.213Z,25.10
2018-03-28T01:30:08.693Z,26.63
2018-03-28T01:32:36.932Z,24.50
2018-03-28T01:35:04.409Z,24.20
2018-03-28T01:37:31.876Z,26.90
2018-03-28T01:40:00.106Z,24.50
2018-03-28T01:42:27.585Z,25.47
2018-03-28T01:44:55.050Z,22.00
2018-03-28T01:47:22.527Z,24.63
2018-03-28T01:49:50.757Z,22.63
2018-03-28T01:52:18.248Z,21.83
2018-03-28T01:54:45.717Z,22.00
2018-03-28T01:57:14.954Z,21.77
2018-03-28T01:59:42.530Z,21.77
2018-03-28T02:02:09.989Z,21.93
2018-03-28T02:04:37.474Z,22.87
2018-03-28T02:07:04.946Z,24.47
2018-03-28T02:09:33.189Z,24.77
2018-03-28T02:12:00.654Z,23.70
2018-03-28T02:14:28.112Z,24.40
2018-03-28T02:16:56.370Z,20.20
2018-03-28T02:19:23.829Z,19.83
2018-03-28T02:21:51.313Z,20.27
2018-03-28T02:24:18.776Z,20.40
2018-03-28T02:26:46.249Z,20.87
2018-03-28T02:29:14.474Z,19.40
2018-03-28T02:31:41.970Z,18.60
2018-03-28T02:34:09.434Z,19.27
2018-03-28T02:36:37.674Z,18.83
2018-03-28T02:39:05.929Z,18.00
2018-03-28T02:41:33.388Z,16.67
2018-03-28T02:44:00.878Z,16.00
2018-03-28T02:46:28.357Z,16.17
2018-03-28T02:48:55.839Z,15.93
2018-03-28T02:51:24.069Z,14.33
2018-03-28T02:53:51.583Z,14.53
2018-03-28T02:56:19.070Z,15.57
2018-03-28T02:58:46.534Z,16.70
2018-03-28T03:01:14.009Z,16.10
2018-03-28T03:03:41.473Z,16.40
2018-03-28T03:06:08.955Z,16.20
2018-03-28T03:08:37.220Z,16.30
2018-03-28T03:11:04.700Z,17.23
2018-03-28T03:13:32.185Z,14.87
2018-03-28T03:15:59.644Z,16.27
2018-03-28T03:18:28.138Z,16.73
2018-03-28T03:20:55.609Z,16.27
2018-03-28T03:23:23.101Z,16.30
2018-03-28T03:25:51.328Z,16.50
2018-03-28T03:28:18.794Z,17.30
2018-03-28T03:30:46.273Z,16.67
2018-03-28T03:33:13.749Z,18.40
2018-03-28T03:35:41.990Z,17.07
2018-03-28T03:38:09.457Z,17.47
2018-03-28T03:40:36.940Z,19.23
2018-03-28T03:43:05.166Z,19.50
2018-03-28T03:45:32.621Z,17.60
2018-03-28T03:48:00.098Z,18.43
2018-03-28T03:50:27.565Z,17.47
2018-03-28T03:52:55.046Z,18.40
2018-03-28T03:55:23.364Z,18.30
2018-03-28T03:57:50.849Z,18.80
2018-03-28T04:00:18.305Z,21.37
2018-03-28T04:02:45.805Z,20.80
2018-03-28T04:05:14.037Z,18.67
2018-03-28T04:07:41.506Z,18.17
2018-03-28T04:10:08.981Z,16.87
2018-03-28T04:12:36.446Z,17.87
2018-03-28T04:15:05.697Z,18.30
2018-03-28T04:17:33.162Z,18.03
2018-03-28T04:20:00.642Z,19.40
2018-03-28T04:22:28.110Z,16.57
2018-03-28T04:24:55.609Z,16.60
2018-03-28T04:27:23.071Z,17.13
2018-03-28T04:29:50.542Z,17.50
2018-03-28T04:32:18.033Z,17.07
2018-03-28T04:34:45.563Z,16.93
2018-03-28T04:37:13.762Z,16.60
2018-03-28T04:39:41.249Z,17.00
2018-03-28T04:42:09.502Z,17.33
2018-03-28T04:44:36.997Z,16.87
2018-03-28T04:47:05.245Z,17.60
2018-03-28T04:49:32.708Z,17.70
2018-03-28T04:52:00.174Z,17.47
2018-03-28T04:54:28.429Z,20.17
2018-03-28T04:56:55.897Z,18.93
2018-03-28T04:59:23.384Z,19.10
2018-03-28T05:01:51.618Z,19.57
2018-03-28T05:04:19.169Z,19.67
2018-03-28T05:06:46.608Z,19.87
2018-03-28T05:09:14.421Z,20.23
2018-03-28T05:11:41.877Z,21.37
2018-03-28T05:14:11.024Z,21.20
2018-03-28T05:16:38.529Z,22.97
2018-03-28T05:19:06.012Z,22.80
2018-03-28T05:21:34.288Z,24.27
2018-03-28T05:24:02.525Z,24.33
2018-03-28T05:26:30.001Z,25.10
2018-03-28T05:28:57.737Z,27.03
2018-03-28T05:31:25.217Z,25.63
2018-03-28T05:33:52.685Z,27.37
2018-03-28T05:36:20.916Z,26.67
2018-03-28T05:38:48.392Z,29.13
2018-03-28T05:41:15.869Z,30.20
2018-03-28T05:43:43.345Z,28.93
2018-03-28T05:46:11.578Z,29.90
2018-03-28T05:48:39.167Z,30.27
2018-03-28T05:51:07.406Z,29.83
2018-03-28T05:53:34.885Z,30.63
2018-03-28T05:56:02.362Z,30.33
2018-03-28T05:58:29.820Z,29.80
2018-03-28T06:00:59.094Z,30.30
2018-03-28T06:03:26.557Z,29.37
2018-03-28T06:05:54.029Z,32.43
2018-03-28T06:08:21.500Z,31.63
2018-03-28T06:10:49.765Z,32.20
2018-03-28T06:13:17.242Z,30.43
2018-03-28T06:15:45.491Z,32.30
2018-03-28T06:18:14.475Z,31.93
2018-03-28T06:20:41.949Z,33.47
2018-03-28T06:23:09.411Z,31.07
2018-03-28T06:25:36.874Z,32.30
2018-03-28T06:28:05.125Z,30.07
2018-03-28T06:30:32.599Z,33.17
2018-03-28T06:33:00.105Z,33.13
2018-03-28T06:35:27.576Z,32.67
2018-03-28T06:37:55.058Z,32.97
2018-03-28T06:40:22.539Z,33.90
2018-03-28T06:42:50.785Z,34.40
2018-03-28T06:45:18.253Z,34.07
2018-03-28T06:47:45.726Z,33.43
2018-03-28T06:50:13.207Z,35.67
2018-03-28T06:52:41.436Z,36.07
2018-03-28T06:55:08.929Z,35.40
2018-03-28T06:57:37.165Z,34.53
2018-03-28T07:00:04.654Z,34.40
2018-03-28T07:02:32.113Z,35.00
2018-03-28T07:05:00.364Z,33.60
2018-03-28T07:07:27.900Z,34.10
2018-03-28T07:09:56.102Z,40.20
2018-03-28T07:12:23.567Z,33.83
2018-03-28T07:14:51.036Z,35.77
2018-03-28T07:17:18.510Z,35.57
2018-03-28T07:19:46.749Z,33.90
2018-03-28T07:22:14.316Z,36.80
2018-03-28T07:24:42.482Z,34.07
2018-03-28T07:27:09.963Z,36.00
2018-03-28T07:29:37.436Z,35.17
2018-03-28T07:32:05.693Z,34.83
2018-03-28T07:34:33.158Z,35.13
2018-03-28T07:37:00.625Z,33.67
2018-03-28T07:39:28.868Z,36.17
2018-03-28T07:41:56.344Z,33.60
2018-03-28T07:44:23.820Z,33.40
2018-03-28T07:46:52.062Z,34.90
2018-03-28T07:49:19.541Z,34.10
2018-03-28T07:51:47.002Z,34.73
2018-03-28T07:56:40.465Z,29.30
2018-03-28T07:59:07.965Z,28.30
2018-03-28T08:01:35.461Z,28.00
2018-03-28T08:04:02.929Z,31.70
2018-03-28T08:06:30.432Z,27.77
2018-03-28T08:08:58.665Z,28.67
2018-03-28T08:11:26.165Z,30.00
2018-03-28T08:13:54.393Z,28.67
2018-03-28T08:16:21.911Z,28.53
2018-03-28T08:18:49.380Z,26.97
2018-03-28T08:21:16.849Z,28.00
2018-03-28T08:23:45.345Z,29.97
2018-03-28T08:26:12.813Z,33.03
2018-03-28T08:28:40.302Z,28.20
2018-03-28T08:31:08.537Z,30.60
2018-03-28T08:33:36.018Z,28.83
2018-03-28T08:36:03.493Z,31.47
2018-03-28T08:38:31.779Z,45.73
2018-03-28T08:40:59.219Z,34.17
2018-03-28T08:43:26.705Z,34.63
2018-03-28T08:45:54.198Z,31.70
2018-03-28T08:48:21.676Z,31.40
2018-03-28T08:50:49.386Z,31.17
2018-03-28T08:53:16.918Z,30.97
2018-03-28T08:55:44.411Z,33.60
2018-03-28T08:58:11.887Z,31.53
2018-03-28T09:00:39.370Z,37.70
2018-03-28T09:03:06.834Z,29.07
2018-03-28T09:05:34.318Z,29.37
2018-03-28T09:08:02.559Z,35.30
2018-03-28T09:10:30.041Z,28.37
2018-03-28T09:12:57.513Z,28.60
2018-03-28T09:15:25.814Z,26.77
2018-03-28T09:17:53.242Z,28.10
2018-03-28T09:20:21.498Z,26.50
2018-03-28T09:22:48.966Z,26.53
2018-03-28T09:25:16.433Z,25.33
2018-03-28T09:27:45.695Z,28.63
2018-03-28T09:30:13.173Z,27.97
2018-03-28T09:32:40.668Z,27.70
2018-03-28T09:35:08.914Z,28.27
2018-03-28T09:37:36.402Z,27.40
2018-03-28T09:40:03.895Z,30.63
2018-03-28T09:42:31.379Z,24.50
2018-03-28T09:44:58.858Z,23.20
2018-03-28T09:47:27.111Z,22.20
2018-03-28T09:49:54.583Z,23.73
2018-03-28T09:52:22.066Z,23.10
2018-03-28T09:54:50.301Z,22.83
2018-03-28T09:57:17.769Z,21.63
2018-03-28T09:59:45.261Z,22.27
2018-03-28T10:02:13.497Z,22.70
2018-03-28T10:04:46.653Z,21.87
2018-03-28T10:07:15.137Z,21.40
2018-03-28T10:09:42.629Z,22.27
2018-03-28T10:12:10.107Z,24.30
2018-03-28T10:14:38.365Z,23.87
2018-03-28T10:17:05.834Z,21.73
2018-03-28T10:19:33.328Z,19.60
2018-03-28T10:22:00.805Z,18.13
2018-03-28T10:24:28.309Z,21.00
2018-03-28T10:26:55.778Z,18.50
2018-03-28T10:29:24.018Z,18.27
2018-03-28T10:31:51.506Z,20.13
2018-03-28T10:34:18.982Z,20.37
2018-03-28T10:36:47.221Z,20.80
2018-03-28T10:39:14.700Z,18.27
2018-03-28T10:41:42.969Z,18.20
2018-03-28T10:44:10.429Z,16.33
2018-03-28T10:46:37.915Z,15.53
2018-03-28T10:49:05.398Z,15.53
2018-03-28T10:51:33.314Z,15.33
2018-03-28T10:54:00.877Z,15.67
2018-03-28T10:56:28.358Z,14.37
2018-03-28T10:58:55.844Z,13.73
2018-03-28T11:01:23.327Z,14.40
2018-03-28T11:03:50.809Z,11.47
2018-03-28T11:06:18.273Z,11.17
2018-03-28T11:08:46.529Z,11.13
2018-03-28T11:11:14.017Z,8.70
2018-03-28T11:13:42.280Z,8.67
2018-03-28T11:16:09.745Z,9.27
2018-03-28T11:18:38.004Z,7.90
2018-03-28T11:21:05.485Z,8.90
2018-03-28T11:23:33.749Z,8.20
2018-03-28T11:26:01.992Z,7.33
2018-03-28T11:28:29.478Z,6.70
2018-03-28T11:30:56.965Z,6.73
2018-03-28T11:33:25.199Z,7.00
2018-03-28T11:35:52.718Z,6.07
2018-03-28T11:38:20.182Z,6.07
2018-03-28T11:40:47.663Z,5.80
2018-03-28T11:43:15.149Z,6.10
2018-03-28T11:45:43.402Z,6.47
2018-03-28T11:48:10.897Z,6.97
2018-03-28T11:50:39.138Z,8.23
2018-03-28T11:53:06.679Z,7.63
2018-03-28T11:55:34.111Z,7.40
2018-03-28T11:58:01.577Z,8.70
2018-03-28T12:00:29.052Z,10.33
2018-03-28T12:02:56.539Z,7.90
2018-03-28T12:05:24.013Z,11.57
2018-03-28T12:07:52.258Z,7.93
2018-03-28T12:10:19.713Z,7.70
2018-03-28T12:12:47.287Z,8.97
2018-03-28T12:15:14.802Z,9.37
2018-03-28T12:17:44.473Z,8.73
2018-03-28T12:20:11.939Z,8.20
2018-03-28T12:22:40.493Z,23.00
2018-03-28T12:25:08.178Z,35.20
2018-03-28T12:27:35.670Z,8.13
2018-03-28T12:30:03.497Z,13.93
2018-03-28T12:32:31.819Z,9.20
2018-03-28T12:34:59.437Z,9.50
2018-03-28T12:37:26.937Z,62.17
2018-03-28T12:39:54.479Z,19.17
2018-03-28T12:42:22.709Z,19.63
2018-03-28T12:44:50.189Z,10.40
2018-03-28T12:47:17.727Z,27.00
2018-03-28T12:49:45.292Z,7.50
2018-03-28T12:52:12.683Z,22.70
2018-03-28T12:54:40.906Z,9.60
2018-03-28T12:57:08.388Z,26.23
2018-03-28T12:59:35.961Z,7.60
2018-03-28T13:02:03.449Z,9.30
2018-03-28T13:04:30.944Z,20.63
2018-03-28T13:06:58.426Z,11.07
2018-03-28T13:09:25.890Z,7.87
2018-03-28T13:11:53.401Z,16.43
2018-03-28T13:14:20.884Z,8.23
2018-03-28T13:16:48.369Z,7.90
2018-03-28T13:19:16.628Z,8.00
2018-03-28T13:21:44.830Z,9.50
2018-03-28T13:24:13.106Z,10.33
2018-03-28T13:26:41.391Z,9.37
2018-03-28T13:29:09.806Z,10.37
2018-03-28T13:31:37.297Z,11.20
2018-03-28T13:34:04.785Z,14.97
2018-03-28T13:36:33.013Z,11.60
2018-03-28T13:39:00.501Z,9.53
2018-03-28T13:41:28.006Z,9.93
2018-03-28T13:43:55.495Z,10.77
2018-03-28T13:46:22.979Z,15.60
2018-03-28T13:48:50.436Z,8.80
2018-03-28T13:51:17.913Z,9.60
2018-03-28T13:53:46.141Z,9.53
2018-03-28T13:56:13.628Z,7.87
2018-03-28T13:58:41.859Z,8.80
2018-03-28T14:01:10.357Z,8.03
2018-03-28T14:03:37.865Z,9.60
2018-03-28T14:06:06.106Z,9.30
2018-03-28T14:08:33.995Z,9.60
2018-03-28T14:11:02.545Z,11.60
2018-03-28T14:13:30.259Z,9.57
2018-03-28T14:15:58.502Z,11.90
2018-03-28T14:18:25.986Z,11.20
2018-03-28T14:20:54.232Z,10.90
2018-03-28T14:23:21.709Z,10.53
2018-03-28T14:25:49.945Z,12.90
2018-03-28T14:28:17.445Z,13.07
2018-03-28T14:30:45.702Z,16.43
2018-03-28T14:33:13.174Z,12.60
2018-03-28T14:35:41.154Z,12.33
2018-03-28T14:38:09.524Z,10.57
2018-03-28T14:40:37.803Z,11.30
2018-03-28T14:43:05.302Z,11.10
2018-03-28T14:45:32.813Z,16.13
2018-03-28T14:48:01.818Z,11.37
2018-03-28T14:50:29.405Z,16.67
2018-03-28T14:52:56.909Z,11.90
2018-03-28T14:55:24.422Z,11.57
2018-03-28T14:57:52.342Z,11.10
2018-03-28T15:00:20.379Z,10.40
2018-03-28T15:02:48.119Z,9.47
2018-03-28T15:05:15.621Z,9.70
2018-03-28T15:07:43.144Z,8.87
2018-03-28T15:10:11.458Z,9.17
2018-03-28T15:12:38.965Z,8.47
2018-03-28T15:15:07.503Z,8.50
2018-03-28T15:17:35.055Z,8.80
2018-03-28T15:20:03.661Z,13.20
2018-03-28T15:22:32.011Z,7.70
2018-03-28T15:24:59.503Z,8.30
2018-03-28T15:27:26.996Z,7.77
2018-03-28T15:29:55.242Z,22.10
2018-03-28T15:32:22.731Z,17.73
2018-03-28T15:34:51.483Z,8.80
2018-03-28T15:37:18.955Z,21.27
2018-03-28T15:39:47.419Z,7.33
2018-03-28T15:42:14.948Z,7.53
2018-03-28T15:44:43.353Z,6.93
2018-03-28T15:47:11.021Z,8.00
2018-03-28T15:49:38.583Z,8.10
2018-03-28T15:52:06.222Z,7.60
2018-03-28T15:54:34.637Z,8.60
2018-03-28T15:57:02.281Z,6.37
2018-03-28T15:59:29.761Z,7.30
2018-03-28T16:01:57.228Z,6.90
2018-03-28T16:04:25.536Z,6.00
2018-03-28T16:06:53.033Z,5.90
2018-03-28T16:09:20.501Z,6.43
2018-03-28T16:11:47.985Z,6.43
2018-03-28T16:14:16.221Z,6.13
2018-03-28T16:16:43.698Z,7.07
2018-03-28T16:19:11.171Z,6.57
2018-03-28T16:21:39.413Z,7.10
2018-03-28T16:24:06.886Z,6.10
2018-03-28T16:26:35.224Z,6.93
2018-03-28T16:29:02.705Z,7.17
2018-03-28T16:31:30.366Z,7.10
2018-03-28T16:33:57.851Z,5.53
2018-03-28T16:36:25.316Z,5.90
2018-03-28T16:38:53.830Z,7.30
2018-03-28T16:41:21.353Z,5.70
2018-03-28T16:43:48.865Z,20.80
2018-03-28T16:46:16.329Z,6.10
2018-03-28T16:48:43.805Z,6.70
2018-03-28T16:51:11.281Z,6.20
2018-03-28T16:53:39.554Z,6.57
2018-03-28T16:56:07.053Z,8.40
2018-03-28T16:58:34.631Z,6.60
2018-03-28T17:01:02.108Z,6.43
2018-03-28T17:03:29.581Z,6.60
2018-03-28T17:05:57.067Z,6.33
2018-03-28T17:08:25.293Z,6.23
2018-03-28T17:10:52.771Z,6.87
2018-03-28T17:13:20.254Z,6.93
2018-03-28T17:15:48.512Z,6.20
2018-03-28T17:18:15.981Z,5.97
2018-03-28T17:20:43.461Z,5.83
2018-03-28T17:23:11.697Z,6.80
2018-03-28T17:25:39.183Z,6.20
2018-03-28T17:28:07.495Z,6.37
2018-03-28T17:30:34.972Z,7.53
2018-03-28T17:33:02.508Z,9.23
2018-03-28T17:35:29.980Z,5.63
2018-03-28T17:37:57.470Z,5.93
2018-03-28T17:40:24.980Z,7.43
2018-03-28T17:42:52.469Z,6.23
2018-03-28T17:45:19.939Z,5.93
2018-03-28T17:47:47.460Z,5.33
2018-03-28T17:50:14.925Z,6.43
2018-03-28T17:52:42.418Z,5.90
2018-03-28T17:55:09.889Z,5.37
2018-03-28T17:57:38.113Z,5.13
2018-03-28T18:00:05.602Z,4.37
2018-03-28T18:02:33.077Z,4.10
2018-03-28T18:05:00.556Z,4.43
2018-03-28T18:07:28.789Z,3.17
2018-03-28T18:09:56.300Z,9.50
2018-03-28T18:12:23.793Z,2.57
2018-03-28T18:14:51.291Z,8.43
2018-03-28T18:17:18.758Z,4.43
2018-03-28T18:19:47.047Z,4.30
2018-03-28T18:22:15.282Z,5.43
2018-03-28T18:24:42.780Z,8.70
2018-03-28T18:29:06.888Z,3.57
2018-03-28T18:31:34.313Z,3.70
2018-03-28T18:34:01.862Z,4.50
2018-03-28T18:36:29.351Z,3.63
2018-03-28T18:38:57.582Z,4.40
2018-03-28T18:41:25.069Z,4.90
2018-03-28T18:43:53.317Z,8.33
2018-03-28T18:46:20.813Z,4.30
2018-03-28T18:48:49.038Z,5.50
2018-03-28T18:51:16.562Z,5.07
2018-03-28T18:53:44.141Z,5.20
2018-03-28T18:56:11.642Z,6.13
2018-03-28T18:58:39.106Z,5.80
2018-03-28T19:01:06.584Z,5.90
